createdAt,value
2022-11-15T00:01:19.569Z,10.90
2022-11-15T00:03:47.532Z,11.00
2022-11-15T00:06:14.922Z,11.00
2022-11-15T00:08:42.343Z,11.00
2022-11-15T00:11:12.472Z,10.90
2022-11-15T00:13:40.786Z,10.90
2022-11-15T00:16:09.879Z,10.90
2022-11-15T00:18:38.254Z,10.90
2022-11-15T00:21:08.595Z,10.80
2022-11-15T00:23:36.405Z,10.80
2022-11-15T00:26:04.229Z,10.80
2022-11-15T00:28:31.877Z,10.80
2022-11-15T00:31:10.414Z,10.80
2022-11-15T00:33:37.833Z,10.80
2022-11-15T00:36:07.808Z,10.80
2022-11-15T00:38:35.955Z,10.80
2022-11-15T00:41:09.342Z,10.80
2022-11-15T00:43:37.824Z,10.80
2022-11-15T00:46:05.472Z,10.80
2022-11-15T00:48:33.607Z,10.80
2022-11-15T00:51:01.048Z,10.80
2022-11-15T00:53:28.990Z,10.80
2022-11-15T00:55:56.553Z,10.90
2022-11-15T00:58:23.961Z,10.90
2022-11-15T01:00:51.377Z,10.90
2022-11-15T01:03:18.898Z,10.90
2022-11-15T01:05:46.446Z,10.90
2022-11-15T01:08:15.635Z,10.90
2022-11-15T01:10:43.035Z,10.90
2022-11-15T01:13:10.582Z,10.80
2022-11-15T01:15:41.626Z,10.80
2022-11-15T01:18:09.288Z,10.80
2022-11-15T01:20:41.905Z,10.80
2022-11-15T01:23:09.507Z,10.80
2022-11-15T01:25:36.947Z,10.80
2022-11-15T01:28:04.375Z,10.80
2022-11-15T01:30:31.699Z,10.80
2022-11-15T01:32:59.062Z,10.80
2022-11-15T01:35:26.451Z,10.90
2022-11-15T01:37:53.763Z,10.90
2022-11-15T01:40:21.157Z,10.90
2022-11-15T01:42:48.489Z,10.90
2022-11-15T01:45:16.878Z,10.90
2022-11-15T01:47:50.208Z,10.90
2022-11-15T01:50:23.156Z,10.90
2022-11-15T01:52:50.606Z,10.90
2022-11-15T01:55:25.857Z,10.90
2022-11-15T01:57:58.023Z,10.90
2022-11-15T02:00:25.440Z,10.90
2022-11-15T02:02:52.969Z,10.90
2022-11-15T02:05:20.531Z,10.90
2022-11-15T02:07:49.530Z,10.90
2022-11-15T02:10:22.273Z,10.90
2022-11-15T02:12:50.865Z,10.90
2022-11-15T02:15:18.719Z,11.00
2022-11-15T02:18:07.082Z,11.00
2022-11-15T02:20:52.591Z,11.00
2022-11-15T02:23:43.298Z,11.00
2022-11-15T02:26:31.882Z,11.00
2022-11-15T02:28:59.260Z,11.00
2022-11-15T02:32:23.217Z,11.00
2022-11-15T02:35:02.958Z,11.00
2022-11-15T02:37:40.352Z,11.00
2022-11-15T02:40:26.617Z,11.10
2022-11-15T02:43:20.347Z,11.10
2022-11-15T02:45:52.648Z,11.10
2022-11-15T02:48:22.973Z,11.10
2022-11-15T02:50:50.534Z,11.10
2022-11-15T02:53:17.914Z,11.20
2022-11-15T02:55:49.611Z,11.20
2022-11-15T02:58:38.368Z,11.20
2022-11-15T03:01:12.373Z,11.30
2022-11-15T03:04:17.230Z,11.30
2022-11-15T03:07:17.132Z,11.20
2022-11-15T03:09:57.993Z,11.20
2022-11-15T03:12:33.133Z,11.20
2022-11-15T03:15:24.887Z,11.20
2022-11-15T03:18:24.435Z,11.20
2022-11-15T03:20:53.398Z,11.20
2022-11-15T03:23:20.826Z,11.20
2022-11-15T03:25:51.943Z,11.10
2022-11-15T03:28:23.130Z,11.10
2022-11-15T03:30:51.199Z,11.10
2022-11-15T03:33:20.512Z,11.20
2022-11-15T03:35:49.453Z,11.20
2022-11-15T03:38:26.672Z,11.20
2022-11-15T03:41:01.447Z,11.20
2022-11-15T03:43:54.880Z,11.30
2022-11-15T03:46:30.090Z,11.20
2022-11-15T03:49:25.366Z,11.30
2022-11-15T03:51:52.918Z,11.30
2022-11-15T03:54:20.247Z,11.20
2022-11-15T03:56:47.630Z,11.20
2022-11-15T03:59:15.015Z,11.20
2022-11-15T04:01:42.408Z,11.20
2022-11-15T04:04:09.769Z,11.20
2022-11-15T04:06:37.197Z,11.20
2022-11-15T04:09:04.979Z,11.20
2022-11-15T04:11:32.307Z,11.20
2022-11-15T04:13:59.635Z,11.20
2022-11-15T04:16:26.959Z,11.10
2022-11-15T04:19:12.730Z,11.20
2022-11-15T04:21:58.629Z,11.20
2022-11-15T04:24:25.935Z,11.20
2022-11-15T04:26:53.324Z,11.20
2022-11-15T04:29:35.461Z,11.20
2022-11-15T04:32:04.727Z,11.20
2022-11-15T04:34:32.410Z,11.20
2022-11-15T04:37:17.130Z,11.20
2022-11-15T04:39:44.827Z,11.20
2022-11-15T04:42:12.368Z,11.30
2022-11-15T04:44:39.737Z,11.30
2022-11-15T04:47:07.178Z,11.30
2022-11-15T04:49:34.504Z,11.30
2022-11-15T04:52:02.022Z,11.30
2022-11-15T04:54:29.414Z,11.30
2022-11-15T04:56:56.790Z,11.40
2022-11-15T04:59:24.171Z,11.40
2022-11-15T05:01:51.532Z,11.40
2022-11-15T05:04:22.171Z,11.40
2022-11-15T05:06:51.947Z,11.40
2022-11-15T05:09:20.984Z,11.40
2022-11-15T05:11:48.949Z,11.40
2022-11-15T05:14:16.774Z,11.50
2022-11-15T05:16:44.200Z,11.50
2022-11-15T05:19:11.807Z,11.50
2022-11-15T05:21:39.858Z,11.60
2022-11-15T05:24:07.696Z,11.60
2022-11-15T05:26:35.040Z,11.60
2022-11-15T05:29:02.538Z,11.70
2022-11-15T05:31:29.913Z,11.70
2022-11-15T05:33:59.467Z,11.70
2022-11-15T05:36:26.776Z,11.80
2022-11-15T05:38:54.479Z,11.80
2022-11-15T05:41:44.135Z,11.90
2022-11-15T05:44:14.595Z,12.00
2022-11-15T05:46:43.119Z,12.10
2022-11-15T05:49:14.854Z,12.20
2022-11-15T05:51:44.090Z,12.30
2022-11-15T05:54:12.293Z,12.30
2022-11-15T05:56:40.101Z,12.30
2022-11-15T05:59:09.353Z,12.30
2022-11-15T06:01:36.962Z,12.30
2022-11-15T06:04:04.508Z,12.30
2022-11-15T06:06:31.972Z,12.30
2022-11-15T06:08:59.370Z,12.30
2022-11-15T06:11:26.767Z,12.30
2022-11-15T06:13:54.196Z,12.30
2022-11-15T06:16:21.525Z,12.40
2022-11-15T06:18:48.927Z,12.40
2022-11-15T06:21:16.387Z,12.40
2022-11-15T06:23:43.808Z,12.40
2022-11-15T06:26:11.224Z,12.40
2022-11-15T06:28:38.590Z,12.50
2022-11-15T06:31:08.621Z,12.50
2022-11-15T06:33:36.248Z,12.50
2022-11-15T06:36:13.098Z,12.60
2022-11-15T06:38:44.393Z,12.60
2022-11-15T06:41:13.350Z,12.60
2022-11-15T06:43:41.800Z,12.60
2022-11-15T06:46:09.601Z,12.60
2022-11-15T06:48:37.332Z,12.60
2022-11-15T06:51:06.116Z,12.60
2022-11-15T06:53:34.417Z,12.60
2022-11-15T06:56:03.446Z,12.60
2022-11-15T06:58:31.472Z,12.60
2022-11-15T07:01:10.755Z,12.50
2022-11-15T07:03:42.863Z,12.50
2022-11-15T07:06:11.374Z,12.50
2022-11-15T07:08:39.084Z,12.40
2022-11-15T07:11:08.627Z,12.40
2022-11-15T07:13:38.260Z,12.40
2022-11-15T07:16:08.219Z,12.30
2022-11-15T07:18:37.447Z,12.30
2022-11-15T07:21:06.757Z,12.30
2022-11-15T07:23:34.665Z,12.20
2022-11-15T07:26:02.261Z,12.20
2022-11-15T07:28:29.879Z,12.20
2022-11-15T07:30:57.455Z,12.10
2022-11-15T07:33:24.889Z,12.10
2022-11-15T07:35:52.202Z,12.00
2022-11-15T07:38:22.510Z,12.00
2022-11-15T07:40:58.391Z,11.90
2022-11-15T07:43:25.910Z,11.90
2022-11-15T07:45:57.715Z,11.80
2022-11-15T07:48:35.642Z,11.70
2022-11-15T07:51:14.593Z,11.70
2022-11-15T07:53:43.471Z,11.70
2022-11-15T07:56:11.477Z,11.60
2022-11-15T07:58:39.171Z,11.60
2022-11-15T08:01:08.388Z,11.50
2022-11-15T08:03:36.434Z,11.50
2022-11-15T08:06:04.494Z,11.50
2022-11-15T08:08:31.856Z,11.50
2022-11-15T08:11:00.112Z,11.50
2022-11-15T08:13:27.753Z,11.50
2022-11-15T08:16:02.883Z,11.50
2022-11-15T08:18:30.315Z,11.50
2022-11-15T08:21:01.996Z,11.50
2022-11-15T08:23:29.884Z,11.50
2022-11-15T08:26:04.179Z,11.50
2022-11-15T08:28:33.019Z,11.50
2022-11-15T08:31:00.626Z,11.50
2022-11-15T08:33:28.912Z,11.50
2022-11-15T08:36:01.419Z,11.50
2022-11-15T08:38:30.384Z,11.50
2022-11-15T08:41:04.149Z,11.50
2022-11-15T08:43:32.127Z,11.50
2022-11-15T08:45:59.945Z,11.50
2022-11-15T08:48:27.314Z,11.60
2022-11-15T08:50:56.483Z,11.60
2022-11-15T08:53:24.263Z,11.60
2022-11-15T08:55:51.676Z,11.60
2022-11-15T08:58:19.199Z,11.60
2022-11-15T09:00:46.538Z,11.60
2022-11-15T09:03:13.875Z,11.70
2022-11-15T09:05:41.279Z,11.70
2022-11-15T09:08:25.683Z,11.60
2022-11-15T09:10:56.873Z,11.70
2022-11-15T09:13:24.570Z,11.70
2022-11-15T09:15:51.948Z,11.70
2022-11-15T09:18:21.902Z,11.70
2022-11-15T09:20:49.678Z,11.60
2022-11-15T09:23:18.111Z,11.70
2022-11-15T09:25:45.393Z,11.70
2022-11-15T09:28:12.787Z,11.70
2022-11-15T09:30:40.252Z,11.70
2022-11-15T09:33:09.475Z,11.70
2022-11-15T09:35:36.972Z,11.70
2022-11-15T09:38:04.797Z,11.70
2022-11-15T09:40:33.271Z,11.70
2022-11-15T09:43:30.504Z,11.70
2022-11-15T09:46:38.507Z,11.70
2022-11-15T09:49:07.498Z,11.80
2022-11-15T09:51:47.521Z,11.80
2022-11-15T09:57:32.387Z,11.80
2022-11-15T10:00:45.228Z,11.80
2022-11-15T10:03:19.572Z,11.80
2022-11-15T10:05:49.628Z,11.80
2022-11-15T10:08:31.750Z,11.80
2022-11-15T10:14:12.549Z,11.80
2022-11-15T10:16:55.174Z,11.90
2022-11-15T10:19:38.655Z,11.90
2022-11-15T10:22:24.422Z,11.90
2022-11-15T10:25:01.456Z,11.90
2022-11-15T10:27:30.873Z,11.90
2022-11-15T10:29:58.405Z,12.00
2022-11-15T10:32:26.704Z,12.00
2022-11-15T10:34:54.051Z,12.00
2022-11-15T10:37:32.302Z,12.10
2022-11-15T10:40:18.301Z,12.10
2022-11-15T10:42:45.955Z,12.10
2022-11-15T10:45:29.127Z,12.10
2022-11-15T10:48:16.496Z,12.10
2022-11-15T10:50:46.572Z,12.20
2022-11-15T10:53:36.714Z,12.10
2022-11-15T10:56:09.136Z,12.20
2022-11-15T10:58:41.383Z,12.20
2022-11-15T11:01:14.622Z,12.20
2022-11-15T11:03:44.025Z,12.20
2022-11-15T11:06:18.724Z,12.20
2022-11-15T11:09:01.570Z,12.20
2022-11-15T11:11:49.420Z,12.20
2022-11-15T11:14:28.107Z,12.20
2022-11-15T11:16:59.708Z,12.20
2022-11-15T11:19:41.944Z,12.20
2022-11-15T11:22:18.046Z,12.20
2022-11-15T11:25:26.125Z,12.20
2022-11-15T11:28:24.049Z,12.20
2022-11-15T11:31:02.375Z,12.20
2022-11-15T11:33:39.819Z,12.20
2022-11-15T11:36:22.397Z,12.20
2022-11-15T11:39:12.414Z,12.20
2022-11-15T11:42:05.723Z,12.20
2022-11-15T11:45:08.012Z,12.20
2022-11-15T11:47:41.496Z,12.20
2022-11-15T11:50:20.055Z,12.20
2022-11-15T11:53:00.828Z,12.20
2022-11-15T11:55:33.860Z,12.20
2022-11-15T11:58:27.824Z,12.20
2022-11-15T12:01:04.670Z,12.20
2022-11-15T12:03:49.635Z,12.20
2022-11-15T12:06:51.527Z,12.20
2022-11-15T12:09:25.192Z,12.30
2022-11-15T12:12:11.334Z,12.30
2022-11-15T12:14:56.126Z,12.30
2022-11-15T12:17:26.515Z,12.20
2022-11-15T12:19:58.512Z,12.30
2022-11-15T12:22:48.604Z,12.30
2022-11-15T12:25:23.789Z,12.30
2022-11-15T12:28:00.555Z,12.30
2022-11-15T12:30:42.916Z,12.30
2022-11-15T12:33:29.939Z,12.40
2022-11-15T12:36:03.618Z,12.40
2022-11-15T12:38:49.230Z,12.40
2022-11-15T12:41:19.670Z,12.40
2022-11-15T12:43:48.436Z,12.50
2022-11-15T12:46:43.819Z,12.50
2022-11-15T12:49:24.682Z,12.50
2022-11-15T12:51:53.188Z,12.50
2022-11-15T12:54:23.556Z,12.60
2022-11-15T12:57:07.622Z,12.60
2022-11-15T13:00:02.897Z,12.60
2022-11-15T13:02:37.023Z,12.60
2022-11-15T13:05:36.837Z,12.60
2022-11-15T13:08:08.277Z,12.60
2022-11-15T13:10:36.027Z,12.70
2022-11-15T13:13:10.377Z,12.70
2022-11-15T13:15:59.796Z,12.70
2022-11-15T13:18:32.571Z,12.70
2022-11-15T13:21:02.575Z,12.80
2022-11-15T13:23:30.517Z,12.90
2022-11-15T13:26:06.405Z,12.90
2022-11-15T13:28:42.894Z,13.00
2022-11-15T13:31:26.737Z,13.10
2022-11-15T13:33:58.559Z,13.20
2022-11-15T13:36:34.016Z,13.30
2022-11-15T13:39:29.118Z,13.30
2022-11-15T13:41:56.767Z,13.30
2022-11-15T13:44:34.882Z,13.40
2022-11-15T13:47:15.179Z,13.50
2022-11-15T13:49:43.207Z,13.50
2022-11-15T13:52:15.168Z,13.50
2022-11-15T13:55:03.177Z,13.50
2022-11-15T13:57:52.749Z,13.50
2022-11-15T14:00:27.225Z,13.50
2022-11-15T14:02:56.247Z,13.50
2022-11-15T14:05:25.780Z,13.50
2022-11-15T14:08:01.142Z,13.50
2022-11-15T14:10:33.807Z,13.50
2022-11-15T14:13:01.920Z,13.50
2022-11-15T14:15:37.508Z,13.50
2022-11-15T14:18:06.187Z,13.50
2022-11-15T14:20:35.258Z,13.50
2022-11-15T14:23:05.505Z,13.50
2022-11-15T14:25:36.836Z,13.50
2022-11-15T14:28:13.328Z,13.40
2022-11-15T14:30:41.799Z,13.40
2022-11-15T14:33:24.176Z,13.40
2022-11-15T14:35:53.662Z,13.40
2022-11-15T14:38:21.127Z,13.30
2022-11-15T14:40:48.880Z,13.30
2022-11-15T14:43:17.887Z,13.30
2022-11-15T14:45:45.212Z,13.30
2022-11-15T14:48:12.621Z,13.30
2022-11-15T14:50:40.302Z,13.20
2022-11-15T14:53:08.148Z,13.20
2022-11-15T14:55:37.205Z,13.10
2022-11-15T14:58:05.860Z,13.20
2022-11-15T15:00:35.703Z,13.20
2022-11-15T15:03:04.210Z,13.10
2022-11-15T15:05:43.062Z,13.10
2022-11-15T15:08:11.613Z,13.00
2022-11-15T15:10:44.793Z,13.00
2022-11-15T15:13:23.332Z,13.00
2022-11-15T15:15:52.445Z,13.00
2022-11-15T15:18:21.057Z,13.00
2022-11-15T15:21:01.071Z,13.00
2022-11-15T15:23:31.742Z,13.00
2022-11-15T15:25:59.421Z,13.00
2022-11-15T15:28:31.426Z,12.90
2022-11-15T15:31:02.221Z,13.00
2022-11-15T15:33:29.680Z,12.90
2022-11-15T15:35:57.142Z,12.90
2022-11-15T15:38:24.750Z,12.80
2022-11-15T15:40:52.098Z,12.90
2022-11-15T15:43:19.602Z,12.80
2022-11-15T15:45:47.651Z,12.80
2022-11-15T15:48:17.325Z,12.80
2022-11-15T15:50:46.122Z,12.80
2022-11-15T15:53:14.399Z,12.70
2022-11-15T15:55:42.062Z,12.70
2022-11-15T15:58:09.650Z,12.60
2022-11-15T16:00:37.959Z,12.60
2022-11-15T16:03:05.457Z,12.60
2022-11-15T16:05:32.862Z,12.50
2022-11-15T16:08:00.443Z,12.50
2022-11-15T16:10:33.158Z,12.50
2022-11-15T16:13:00.529Z,12.50
2022-11-15T16:15:31.524Z,12.40
2022-11-15T16:17:59.994Z,12.50
2022-11-15T16:20:33.272Z,12.50
2022-11-15T16:23:07.532Z,12.50
2022-11-15T16:25:42.047Z,12.50
2022-11-15T16:28:25.175Z,12.50
2022-11-15T16:31:02.572Z,12.50
2022-11-15T16:33:30.069Z,12.50
2022-11-15T16:35:57.731Z,12.50
2022-11-15T16:38:25.162Z,12.40
2022-11-15T16:40:52.632Z,12.40
2022-11-15T16:43:20.087Z,12.30
2022-11-15T16:45:50.844Z,12.30
2022-11-15T16:48:26.750Z,12.30
2022-11-15T16:50:59.005Z,12.30
2022-11-15T16:53:27.653Z,12.30
2022-11-15T16:55:55.982Z,12.20
2022-11-15T16:58:23.535Z,12.20
2022-11-15T17:00:55.487Z,12.20
2022-11-15T17:03:24.624Z,12.20
2022-11-15T17:05:52.640Z,12.10
2022-11-15T17:08:21.985Z,12.10
2022-11-15T17:10:49.701Z,12.10
2022-11-15T17:13:17.091Z,12.00
2022-11-15T17:15:45.032Z,12.00
2022-11-15T17:18:14.122Z,12.00
2022-11-15T17:20:43.317Z,12.00
2022-11-15T17:23:14.592Z,12.00
2022-11-15T17:25:42.751Z,12.00
2022-11-15T17:28:10.603Z,12.00
2022-11-15T17:30:41.636Z,12.00
2022-11-15T17:33:08.872Z,12.00
2022-11-15T17:35:36.190Z,12.00
2022-11-15T17:38:03.628Z,12.10
2022-11-15T17:40:31.025Z,12.20
2022-11-15T17:42:58.422Z,12.20
2022-11-15T17:45:25.986Z,12.10
2022-11-15T17:47:53.789Z,12.10
2022-11-15T17:50:21.174Z,12.00
2022-11-15T17:52:48.542Z,12.00
2022-11-15T17:55:15.918Z,12.00
2022-11-15T17:57:44.279Z,12.00
2022-11-15T18:00:12.489Z,12.00
2022-11-15T18:02:39.815Z,12.00
2022-11-15T18:05:07.723Z,11.90
2022-11-15T18:07:35.176Z,11.90
2022-11-15T18:10:02.630Z,11.90
2022-11-15T18:12:29.987Z,11.80
2022-11-15T18:14:58.099Z,11.70
2022-11-15T18:17:25.655Z,11.70
2022-11-15T18:19:52.938Z,11.60
2022-11-15T18:22:20.568Z,11.60
2022-11-15T18:24:48.257Z,11.60
2022-11-15T18:27:15.654Z,11.50
2022-11-15T18:29:44.796Z,11.50
2022-11-15T18:32:15.050Z,11.50
2022-11-15T18:34:42.417Z,11.50
2022-11-15T18:37:09.786Z,11.50
2022-11-15T18:39:37.871Z,11.50
2022-11-15T18:42:05.491Z,11.50
2022-11-15T18:44:33.058Z,11.40
2022-11-15T18:47:00.415Z,11.40
2022-11-15T18:49:28.030Z,11.30
2022-11-15T18:51:56.397Z,11.20
2022-11-15T18:54:29.610Z,11.20
2022-11-15T18:56:58.769Z,11.20
2022-11-15T18:59:27.749Z,11.20
2022-11-15T19:01:56.167Z,11.10
2022-11-15T19:04:24.161Z,11.10
2022-11-15T19:06:52.931Z,11.10
2022-11-15T19:09:20.411Z,11.10
2022-11-15T19:11:49.135Z,11.00
2022-11-15T19:14:17.761Z,11.00
2022-11-15T19:16:52.050Z,11.00
2022-11-15T19:19:24.492Z,11.00
2022-11-15T19:21:52.865Z,11.00
2022-11-15T19:24:20.825Z,11.00
2022-11-15T19:26:48.285Z,11.00
2022-11-15T19:29:16.005Z,10.90
2022-11-15T19:31:43.453Z,10.90
2022-11-15T19:34:11.020Z,10.80
2022-11-15T19:36:44.129Z,10.90
2022-11-15T19:39:13.500Z,10.80
2022-11-15T19:41:42.678Z,10.80
2022-11-15T19:44:11.347Z,10.80
2022-11-15T19:46:39.499Z,10.80
2022-11-15T19:49:10.473Z,10.80
2022-11-15T19:51:39.030Z,10.80
2022-11-15T19:54:08.847Z,10.80
2022-11-15T19:56:37.457Z,10.80
2022-11-15T19:59:05.496Z,10.80
2022-11-15T20:01:39.147Z,10.70
2022-11-15T20:04:10.137Z,10.70
2022-11-15T20:06:40.823Z,10.70
2022-11-15T20:09:11.793Z,10.70
2022-11-15T20:11:39.444Z,10.70
2022-11-15T20:14:09.020Z,10.60
2022-11-15T20:16:36.525Z,10.60
2022-11-15T20:19:04.286Z,10.60
2022-11-15T20:21:31.707Z,10.60
2022-11-15T20:23:59.173Z,10.50
2022-11-15T20:26:26.798Z,10.50
2022-11-15T20:29:00.958Z,10.50
2022-11-15T20:31:29.000Z,10.40
2022-11-15T20:33:56.401Z,10.40
2022-11-15T20:36:23.858Z,10.40
2022-11-15T20:38:51.243Z,10.30
2022-11-15T20:41:18.567Z,10.40
2022-11-15T20:43:46.241Z,10.30
2022-11-15T20:46:13.836Z,10.30
2022-11-15T20:48:41.433Z,10.30
2022-11-15T20:51:14.934Z,10.20
2022-11-15T20:53:43.831Z,10.20
2022-11-15T20:56:14.802Z,10.20
2022-11-15T20:58:43.139Z,10.20
2022-11-15T21:01:13.740Z,10.20
2022-11-15T21:03:41.646Z,10.20
2022-11-15T21:06:09.466Z,10.20
2022-11-15T21:08:55.635Z,10.20
2022-11-15T21:11:41.544Z,10.10
2022-11-15T21:14:09.897Z,10.10
2022-11-15T21:16:38.777Z,10.10
2022-11-15T21:19:06.663Z,10.10
2022-11-15T21:21:35.604Z,10.10
2022-11-15T21:24:08.266Z,10.10
2022-11-15T21:26:36.598Z,10.00
2022-11-15T21:29:04.638Z,10.00
2022-11-15T21:31:32.221Z,10.00
2022-11-15T21:34:03.655Z,10.00
2022-11-15T21:36:31.037Z,10.00
2022-11-15T21:38:58.485Z,10.00
2022-11-15T21:41:25.891Z,9.90
2022-11-15T21:43:57.011Z,9.90
2022-11-15T21:46:24.307Z,9.90
2022-11-15T21:48:51.739Z,9.90
2022-11-15T21:51:19.156Z,9.80
2022-11-15T21:53:46.592Z,9.90
2022-11-15T21:56:15.906Z,9.90
2022-11-15T21:58:43.257Z,9.90
2022-11-15T22:01:30.651Z,9.80
2022-11-15T22:03:58.146Z,9.80
2022-11-15T22:06:25.601Z,9.80
2022-11-15T22:08:52.962Z,9.80
2022-11-15T22:11:22.413Z,9.80
2022-11-15T22:13:49.922Z,9.80
2022-11-15T22:16:17.361Z,9.80
2022-11-15T22:18:44.816Z,9.80
2022-11-15T22:21:14.750Z,9.80
2022-11-15T22:23:42.834Z,9.80
2022-11-15T22:26:19.392Z,9.80
2022-11-15T22:28:49.537Z,9.80
2022-11-15T22:31:16.975Z,9.80
2022-11-15T22:33:44.453Z,9.80
2022-11-15T22:36:13.129Z,9.70
2022-11-15T22:38:40.571Z,9.70
2022-11-15T22:41:08.219Z,9.80
2022-11-15T22:43:35.742Z,9.80
2022-11-15T22:46:04.207Z,9.80
2022-11-15T22:48:37.039Z,9.80
2022-11-15T22:51:05.488Z,9.80
2022-11-15T22:53:32.934Z,9.80
2022-11-15T22:56:02.307Z,9.80
2022-11-15T22:58:31.761Z,9.80
2022-11-15T23:01:02.076Z,9.90
2022-11-15T23:03:30.678Z,9.90
2022-11-15T23:06:05.168Z,9.90
2022-11-15T23:08:33.259Z,9.90
2022-11-15T23:11:21.323Z,9.80
2022-11-15T23:13:51.862Z,9.90
2022-11-15T23:16:22.612Z,9.90
2022-11-15T23:19:00.088Z,9.90
2022-11-15T23:21:57.248Z,9.90
2022-11-15T23:24:25.330Z,9.80
2022-11-15T23:26:55.806Z,9.90
2022-11-15T23:29:25.102Z,9.90
2022-11-15T23:32:12.127Z,9.80
2022-11-15T23:34:44.973Z,9.80
2022-11-15T23:37:15.118Z,9.90
2022-11-15T23:39:42.603Z,9.90
2022-11-15T23:42:19.773Z,9.90
2022-11-15T23:44:50.420Z,9.90
2022-11-15T23:47:19.072Z,9.90
2022-11-15T23:49:46.452Z,9.90
2022-11-15T23:52:15.494Z,9.90
2022-11-15T23:54:43.076Z,9.90
2022-11-15T23:57:12.380Z,9.90
2022-11-15T23:59:43.460Z,9.90
